Time;durP1;ratioP1;P1;durP2;ratioP2;P2;SDS_P1;SDS_P2;PMS_P1;PMS_P2;Temp;Humidity;BMP_temperature;BMP_pressure;BME280_temperature;BME280_humidity;BME280_pressure;Samples;Min_cycle;Max_cycle;Signal;HPM_P1;HPM_P2
2024/03/24 00:03:34;;;;;;;;;;;;;;;20.27;37.55;95050.03;10457374;28;2818;-60
2024/03/24 00:08:35;;;;;;;;;;;;;;;20.23;37.35;95041.94;10460396;28;2953;-60
2024/03/24 00:13:35;;;;;;;;;;;;;;;20.21;37.73;95038.03;10459388;28;2927;-60
2024/03/24 00:18:35;;;;;;;;;;;;;;;20.18;37.34;95041.97;10457070;28;2990;-60
2024/03/24 00:23:36;;;;;;;;;;;;;;;20.16;36.81;95030.19;10456981;28;2642;-64
2024/03/24 00:28:39;;;;;;;;;;;;;;;20.17;36.83;95031.75;10460341;28;2804;-61
2024/03/24 00:33:39;;;;;;;;;;;;;;;20.14;36.75;95030.47;10459128;28;2761;-60
2024/03/24 00:38:40;;;;;;;;;;;;;;;20.16;36.43;95035.44;10466489;28;2820;-60
2024/03/24 00:43:40;;;;;;;;;;;;;;;20.13;35.72;95028.88;10466211;28;2823;-60
2024/03/24 00:48:40;;;;;;;;;;;;;;;20.13;36.43;95007.09;10470407;28;2759;-60
2024/03/24 00:53:41;;;;;;;;;;;;;;;20.14;36.34;95000.75;10464807;28;2802;-60
2024/03/24 00:58:41;;;;;;;;;;;;;;;20.12;36.02;94992.34;10466432;28;2649;-60
2024/03/24 01:03:41;;;;;;;;;;;;;;;20.11;36.00;94988.94;10468474;28;2920;-60
2024/03/24 01:08:41;;;;;;;;;;;;;;;20.09;35.48;94974.53;10469376;28;2823;-60
2024/03/24 01:13:42;;;;;;;;;;;;;;;20.08;35.78;94947.44;10467628;28;2551;-59
2024/03/24 01:18:44;;;;;;;;;;;;;;;20.10;35.82;94949.75;10466073;28;2813;-60
2024/03/24 01:23:44;;;;;;;;;;;;;;;20.09;35.96;94943.72;10463484;28;2615;-60
2024/03/24 01:28:45;;;;;;;;;;;;;;;20.10;35.99;94933.97;10467131;28;2744;-60
2024/03/24 01:33:45;;;;;;;;;;;;;;;20.09;35.82;94941.09;10466630;28;2721;-60
2024/03/24 01:38:45;;;;;;;;;;;;;;;20.10;35.83;94923.44;10463829;28;2771;-60
2024/03/24 01:43:45;;;;;;;;;;;;;;;20.09;35.91;94914.00;10476298;28;2812;-60
2024/03/24 01:48:46;;;;;;;;;;;;;;;20.10;36.21;94905.03;10461271;28;2799;-60
2024/03/24 01:53:46;;;;;;;;;;;;;;;20.10;36.16;94891.88;10469949;28;2865;-60
2024/03/24 01:58:46;;;;;;;;;;;;;;;20.08;36.32;94881.66;10464382;28;2531;-60
2024/03/24 02:03:47;;;;;;;;;;;;;;;20.08;35.88;94891.38;10464046;28;2610;-59
2024/03/24 02:08:47;;;;;;;;;;;;;;;20.07;36.04;94893.25;10466362;28;2778;-60
2024/03/24 02:13:47;;;;;;;;;;;;;;;20.07;36.26;94887.22;10460784;28;2795;-60
2024/03/24 02:18:48;;;;;;;;;;;;;;;20.06;36.17;94883.00;10460495;28;2752;-60
2024/03/24 02:23:51;;;;;;;;;;;;;;;20.04;36.14;94867.53;10465458;28;2857;-59
2024/03/24 02:28:51;;;;;;;;;;;;;;;20.03;36.10;94865.19;10464607;28;2912;-59
2024/03/24 02:33:52;;;;;;;;;;;;;;;20.02;36.14;94853.09;10462900;28;2798;-60
2024/03/24 02:38:52;;;;;;;;;;;;;;;20.00;36.15;94842.88;10462494;28;2778;-60
2024/03/24 02:43:52;;;;;;;;;;;;;;;19.98;36.30;94833.69;10463942;28;2828;-60
2024/03/24 02:48:52;;;;;;;;;;;;;;;19.96;36.23;94820.06;10462471;28;2829;-60
2024/03/24 02:53:53;;;;;;;;;;;;;;;19.95;36.28;94811.38;10497147;28;2784;-60
2024/03/24 02:58:53;;;;;;;;;;;;;;;19.95;36.24;94795.59;10463761;28;2741;-60
2024/03/24 03:03:53;;;;;;;;;;;;;;;19.94;36.42;94803.78;10463462;28;2688;-60
2024/03/24 03:08:53;;;;;;;;;;;;;;;19.92;36.50;94782.28;10462992;28;2770;-60
2024/03/24 03:13:54;;;;;;;;;;;;;;;19.91;36.15;94783.31;10465268;28;2748;-60
2024/03/24 03:18:54;;;;;;;;;;;;;;;19.89;35.92;94785.47;10461246;28;2568;-59
2024/03/24 03:23:55;;;;;;;;;;;;;;;19.89;36.00;94775.72;10463598;28;2766;-60
2024/03/24 03:28:55;;;;;;;;;;;;;;;19.87;36.18;94774.47;10467327;28;2857;-59
2024/03/24 03:33:55;;;;;;;;;;;;;;;19.86;36.08;94773.69;10463998;28;2714;-59
2024/03/24 03:38:56;;;;;;;;;;;;;;;19.85;35.97;94769.50;10463738;28;2835;-59
2024/03/24 03:43:56;;;;;;;;;;;;;;;19.83;36.35;94755.88;10462674;28;2896;-59
2024/03/24 03:48:56;;;;;;;;;;;;;;;19.82;36.39;94761.41;10462387;28;2771;-59
2024/03/24 03:53:58;;;;;;;;;;;;;;;19.81;36.23;94763.25;10469147;28;2575;-58
2024/03/24 03:58:58;;;;;;;;;;;;;;;19.80;35.91;94766.19;10461795;28;2500;-60
2024/03/24 04:03:59;;;;;;;;;;;;;;;19.77;36.51;94757.03;10464807;28;2608;-60
2024/03/24 04:09:05;;;;;;;;;;;;;;;19.76;35.84;94757.34;10460998;28;2721;-59
2024/03/24 04:14:05;;;;;;;;;;;;;;;19.75;36.17;94750.50;10464817;28;2850;-60
2024/03/24 04:19:05;;;;;;;;;;;;;;;19.73;36.37;94745.53;10472463;28;2725;-60
2024/03/24 04:24:06;;;;;;;;;;;;;;;19.73;35.96;94763.16;10485885;28;2658;-59
2024/03/24 04:29:06;;;;;;;;;;;;;;;19.71;36.11;94757.41;10466823;28;2775;-60
2024/03/24 04:34:06;;;;;;;;;;;;;;;19.70;35.92;94755.88;10464649;28;6150;-60
2024/03/24 04:39:12;;;;;;;;;;;;;;;19.69;36.26;94755.09;10471346;28;2944;-60
2024/03/24 04:44:12;;;;;;;;;;;;;;;19.68;36.13;94760.63;10464219;28;2779;-60
2024/03/24 04:49:13;;;;;;;;;;;;;;;19.66;36.06;94766.16;10469765;28;2827;-60
2024/03/24 04:54:13;;;;;;;;;;;;;;;19.65;36.03;94764.63;10470951;28;2653;-60
2024/03/24 04:59:13;;;;;;;;;;;;;;;19.62;36.74;94762.56;10464804;28;2833;-60
2024/03/24 05:04:14;;;;;;;;;;;;;;;19.61;37.06;94761.03;10468553;28;3032;-60
2024/03/24 05:09:16;;;;;;;;;;;;;;;19.63;36.62;94772.03;10468549;28;2665;-59
2024/03/24 05:14:16;;;;;;;;;;;;;;;19.67;36.83;94777.47;10465710;28;2821;-62
2024/03/24 05:19:16;;;;;;;;;;;;;;;19.71;36.95;94778.44;10463189;28;2752;-58
2024/03/24 05:24:17;;;;;;;;;;;;;;;19.77;37.21;94779.91;10465191;28;2858;-58
2024/03/24 05:29:19;;;;;;;;;;;;;;;19.83;36.95;94790.06;10465567;28;2752;-61
2024/03/24 05:34:19;;;;;;;;;;;;;;;19.89;36.86;94781.00;10466992;28;2748;-60
2024/03/24 05:39:20;;;;;;;;;;;;;;;19.97;36.35;94792.72;10468770;28;2792;-62
2024/03/24 05:44:20;;;;;;;;;;;;;;;20.02;36.54;94785.47;10467181;28;2762;-58
2024/03/24 05:49:20;;;;;;;;;;;;;;;20.07;36.14;94782.75;10461066;28;2760;-58
2024/03/24 05:54:21;;;;;;;;;;;;;;;20.13;35.87;94771.03;10471770;28;2805;-58
2024/03/24 05:59:21;;;;;;;;;;;;;;;20.22;36.08;94781.69;10464501;28;2802;-58
2024/03/24 06:04:21;;;;;;;;;;;;;;;20.28;35.66;94780.50;10460370;28;2854;-61
2024/03/24 06:09:22;;;;;;;;;;;;;;;20.34;35.68;94789.88;10461157;28;2736;-60
2024/03/24 06:14:22;;;;;;;;;;;;;;;20.39;36.02;94794.25;10462133;28;2790;-60
2024/03/24 06:19:22;;;;;;;;;;;;;;;20.41;35.81;94795.53;10462911;28;2849;-60
2024/03/24 06:24:22;;;;;;;;;;;;;;;20.39;36.01;94800.31;10465922;28;2621;-60
2024/03/24 06:29:23;;;;;;;;;;;;;;;20.41;35.42;94806.03;10462479;28;2795;-60
2024/03/24 06:34:23;;;;;;;;;;;;;;;20.47;35.33;94804.88;10459360;28;2863;-60
2024/03/24 06:39:23;;;;;;;;;;;;;;;20.43;35.83;94796.00;10463977;28;2595;-60
2024/03/24 06:44:24;;;;;;;;;;;;;;;20.53;35.34;94795.00;10463928;28;2784;-60
2024/03/24 06:49:24;;;;;;;;;;;;;;;20.47;35.79;94799.59;10465973;28;2799;-60
2024/03/24 06:54:24;;;;;;;;;;;;;;;20.47;35.73;94811.97;10461324;28;2928;-60
2024/03/24 06:59:25;;;;;;;;;;;;;;;20.50;35.41;94816.66;10465348;28;2732;-60
2024/03/24 07:04:25;;;;;;;;;;;;;;;20.54;35.54;94813.16;10457628;28;2792;-60
2024/03/24 07:09:26;;;;;;;;;;;;;;;20.59;35.92;94825.41;10464160;28;2548;-60
2024/03/24 07:14:26;;;;;;;;;;;;;;;20.63;35.05;94816.63;10446276;28;2618;-61
2024/03/24 07:19:26;;;;;;;;;;;;;;;20.57;35.68;94814.41;10463790;28;2711;-61
2024/03/24 07:24:26;;;;;;;;;;;;;;;20.62;35.37;94825.63;10460721;28;2796;-60
2024/03/24 07:29:27;;;;;;;;;;;;;;;20.68;35.70;94811.28;10462231;28;2772;-61
2024/03/24 07:34:27;;;;;;;;;;;;;;;20.70;35.32;94818.88;10461166;28;2748;-62
2024/03/24 07:39:28;;;;;;;;;;;;;;;20.72;35.09;94817.50;10463634;28;2791;-61
2024/03/24 07:44:28;;;;;;;;;;;;;;;20.71;35.62;94825.72;10460792;28;2798;-60
2024/03/24 07:49:29;;;;;;;;;;;;;;;20.71;35.88;94834.38;10462512;28;2677;-60
2024/03/24 07:54:29;;;;;;;;;;;;;;;20.72;35.83;94817.50;10466006;28;2834;-62
2024/03/24 07:59:29;;;;;;;;;;;;;;;20.75;35.45;94813.50;10462275;28;2588;-60
2024/03/24 08:04:30;;;;;;;;;;;;;;;20.88;35.18;94816.09;10456938;28;2759;-69
2024/03/24 08:09:30;;;;;;;;;;;;;;;20.89;36.60;94815.03;10457502;28;2847;-63
2024/03/24 08:14:30;;;;;;;;;;;;;;;20.88;35.62;94818.72;10458148;28;2978;-62
2024/03/24 08:19:30;;;;;;;;;;;;;;;20.90;34.41;94821.06;10457536;28;2629;-62
2024/03/24 08:24:31;;;;;;;;;;;;;;;20.87;34.35;94832.19;10458229;28;2728;-62
2024/03/24 08:29:31;;;;;;;;;;;;;;;20.79;34.51;94846.84;10458136;28;2737;-62
2024/03/24 08:34:31;;;;;;;;;;;;;;;20.74;36.39;94843.53;10453662;28;2778;-62
2024/03/24 08:39:31;;;;;;;;;;;;;;;20.72;37.31;94857.00;10459500;28;2747;-64
2024/03/24 08:44:32;;;;;;;;;;;;;;;20.69;37.66;94857.59;10454740;28;2873;-62
2024/03/24 08:49:32;;;;;;;;;;;;;;;20.66;38.04;94852.91;10484607;28;2887;-62
2024/03/24 08:54:32;;;;;;;;;;;;;;;20.64;38.08;94864.81;10456490;28;2806;-62
2024/03/24 08:59:32;;;;;;;;;;;;;;;20.71;36.75;94860.69;10456932;28;2822;-64
2024/03/24 09:04:33;;;;;;;;;;;;;;;20.67;38.17;94856.34;10461778;28;2675;-62
2024/03/24 09:09:33;;;;;;;;;;;;;;;20.66;38.15;94866.09;10461767;28;2785;-63
2024/03/24 09:14:33;;;;;;;;;;;;;;;20.61;38.58;94868.81;10459993;28;2843;-65
2024/03/24 09:19:34;;;;;;;;;;;;;;;20.61;38.41;94868.81;10458340;28;2874;-64
2024/03/24 09:24:34;;;;;;;;;;;;;;;20.73;37.20;94868.31;10462678;28;2788;-60
2024/03/24 09:29:34;;;;;;;;;;;;;;;20.71;36.48;94868.59;10463452;28;2593;-58
2024/03/24 09:34:35;;;;;;;;;;;;;;;20.77;36.49;94869.28;10472143;28;2831;-62
2024/03/24 09:39:35;;;;;;;;;;;;;;;20.78;36.76;94871.63;10461117;28;2793;-64
2024/03/24 09:44:35;;;;;;;;;;;;;;;20.81;36.03;94875.53;10461744;28;2733;-68
2024/03/24 09:49:36;;;;;;;;;;;;;;;20.82;36.23;94871.81;10451412;28;2790;-66
2024/03/24 09:54:36;;;;;;;;;;;;;;;20.91;36.18;94872.69;10462511;28;2830;-67
2024/03/24 09:59:36;;;;;;;;;;;;;;;20.95;36.64;94863.09;10462658;28;2640;-65
2024/03/24 10:04:36;;;;;;;;;;;;;;;21.00;35.85;94874.31;10465046;28;2925;-64
2024/03/24 10:09:37;;;;;;;;;;;;;;;21.09;35.34;94869.16;10463556;28;2870;-69
2024/03/24 10:14:37;;;;;;;;;;;;;;;21.18;35.12;94859.47;10456733;28;2874;-63
2024/03/24 10:19:37;;;;;;;;;;;;;;;21.22;35.61;94859.63;10460821;28;2797;-64
2024/03/24 10:24:38;;;;;;;;;;;;;;;21.24;36.68;94854.84;10460848;28;2603;-63
2024/03/24 10:29:38;;;;;;;;;;;;;;;21.28;36.76;94858.44;10459047;28;2579;-64
2024/03/24 10:34:40;;;;;;;;;;;;;;;21.36;36.18;94855.88;10463260;28;2792;-64
2024/03/24 10:39:40;;;;;;;;;;;;;;;21.38;36.73;94868.75;10459867;28;2599;-64
2024/03/24 10:44:40;;;;;;;;;;;;;;;21.35;36.72;94866.72;10457846;28;2804;-64
2024/03/24 10:49:41;;;;;;;;;;;;;;;21.38;36.80;94866.91;10461367;28;2538;-64
2024/03/24 10:54:41;;;;;;;;;;;;;;;21.38;36.80;94858.19;10461265;28;2839;-64
2024/03/24 10:59:41;;;;;;;;;;;;;;;21.39;36.60;94851.88;10462695;28;2806;-64
2024/03/24 11:04:41;;;;;;;;;;;;;;;21.38;36.90;94839.75;10459181;28;2803;-64
2024/03/24 11:09:42;;;;;;;;;;;;;;;21.37;37.04;94835.56;10460830;28;2783;-65
2024/03/24 11:14:42;;;;;;;;;;;;;;;21.37;37.02;94831.06;10462956;28;2754;-65
2024/03/24 11:19:46;;;;;;;;;;;;;;;21.33;36.90;94827.47;10458592;28;2808;-67
2024/03/24 11:24:46;;;;;;;;;;;;;;;21.31;36.53;94826.22;10461493;28;2859;-64
2024/03/24 11:29:48;;;;;;;;;;;;;;;21.28;37.02;94821.53;10459379;28;2765;-64
2024/03/24 11:34:54;;;;;;;;;;;;;;;21.25;36.68;94827.41;10460801;28;2736;-65
2024/03/24 11:39:54;;;;;;;;;;;;;;;21.24;36.31;94821.38;10460105;28;2853;-65
2024/03/24 11:44:55;;;;;;;;;;;;;;;21.21;35.98;94834.34;10462457;28;2680;-65
2024/03/24 11:49:56;;;;;;;;;;;;;;;21.22;36.00;94833.28;10460443;28;2790;-64
2024/03/24 11:54:56;;;;;;;;;;;;;;;21.22;36.22;94831.44;10472554;28;2568;-60
2024/03/24 11:59:57;;;;;;;;;;;;;;;21.22;36.01;94826.16;10478030;28;2752;-67
2024/03/24 12:04:57;;;;;;;;;;;;;;;21.23;36.11;94819.78;10452342;28;2790;-65
2024/03/24 12:09:57;;;;;;;;;;;;;;;21.28;35.58;94813.63;10455147;28;2805;-67
2024/03/24 12:14:57;;;;;;;;;;;;;;;21.31;35.36;94816.44;10455195;28;3236;-66
2024/03/24 12:19:58;;;;;;;;;;;;;;;21.35;35.44;94811.38;10440140;28;2805;-68
2024/03/24 12:24:58;;;;;;;;;;;;;;;21.38;34.94;94818.66;10487697;28;2844;-67
2024/03/24 12:29:58;;;;;;;;;;;;;;;21.42;35.01;94801.16;10454739;28;2764;-67
2024/03/24 12:34:59;;;;;;;;;;;;;;;21.44;34.96;94809.53;10460882;28;2802;-67
2024/03/24 12:39:59;;;;;;;;;;;;;;;21.47;34.86;94812.38;10482968;28;2795;-68
2024/03/24 12:45:10;;;;;;;;;;;;;;;21.48;34.95;94811.28;10466689;28;2854;-67
2024/03/24 12:50:29;;;;;;;;;;;;;;;21.43;35.22;94810.63;10490373;28;2694;-67
2024/03/24 12:55:30;;;;;;;;;;;;;;;21.44;35.45;94807.69;10461716;28;2870;-66
2024/03/24 13:00:30;;;;;;;;;;;;;;;21.46;35.87;94808.16;10463833;28;2877;-68
2024/03/24 13:05:30;;;;;;;;;;;;;;;21.47;35.53;94803.69;10462301;28;2642;-68
2024/03/24 13:10:31;;;;;;;;;;;;;;;21.45;35.98;94800.56;10462496;28;2784;-68
2024/03/24 13:15:34;;;;;;;;;;;;;;;21.44;35.38;94804.28;10462343;28;2717;-67
2024/03/24 13:20:35;;;;;;;;;;;;;;;21.41;35.59;94825.97;10459145;28;2703;-67
2024/03/24 13:25:35;;;;;;;;;;;;;;;21.39;35.81;94801.78;10446780;28;2811;-66
2024/03/24 13:30:39;;;;;;;;;;;;;;;21.39;35.87;94788.59;10463789;28;2739;-66
2024/03/24 13:35:40;;;;;;;;;;;;;;;21.44;34.97;94778.69;10491916;28;2901;-67
2024/03/24 13:40:43;;;;;;;;;;;;;;;21.44;34.97;94776.06;10493713;28;2621;-68
2024/03/24 13:46:04;;;;;;;;;;;;;;;21.44;35.38;94756.81;10465797;28;2907;-68
2024/03/24 13:51:05;;;;;;;;;;;;;;;21.43;35.04;94765.81;10466953;28;2852;-67
2024/03/24 13:56:06;;;;;;;;;;;;;;;21.44;35.54;94770.00;10493830;28;2812;-63
2024/03/24 14:01:06;;;;;;;;;;;;;;;21.41;34.96;94762.72;10461423;28;2864;-65
2024/03/24 14:06:07;;;;;;;;;;;;;;;21.37;36.02;94759.88;10459842;28;2659;-70
2024/03/24 14:11:11;;;;;;;;;;;;;;;21.36;36.42;94766.25;10460025;28;2799;-70
2024/03/24 14:16:28;;;;;;;;;;;;;;;21.37;37.21;94767.78;10459026;28;2626;-70
2024/03/24 14:21:36;;;;;;;;;;;;;;;21.39;36.92;94767.50;10457901;28;3006;-69
2024/03/24 14:26:36;;;;;;;;;;;;;;;21.40;36.59;94776.94;10461347;28;2754;-69
2024/03/24 14:31:36;;;;;;;;;;;;;;;21.40;36.67;94771.69;10463379;28;2871;-69
2024/03/24 14:36:55;;;;;;;;;;;;;;;21.43;36.92;94771.09;10465902;28;2806;-69
2024/03/24 14:42:01;;;;;;;;;;;;;;;21.45;37.01;94768.94;10465970;28;2791;-69
2024/03/24 14:47:20;;;;;;;;;;;;;;;21.47;36.91;94754.38;10464013;28;2783;-69
2024/03/24 14:52:21;;;;;;;;;;;;;;;21.47;37.05;94757.00;10461950;28;2771;-69
2024/03/24 14:57:21;;;;;;;;;;;;;;;21.48;36.96;94748.00;10443747;28;2812;-70
2024/03/24 15:02:22;;;;;;;;;;;;;;;21.23;34.01;94761.81;10460696;28;2526;-75
2024/03/24 15:07:22;;;;;;;;;;;;;;;20.32;32.12;94757.78;10445569;28;2761;-75
2024/03/24 15:12:22;;;;;;;;;;;;;;;19.55;31.37;94758.75;10462988;28;2806;-75
2024/03/24 15:17:24;;;;;;;;;;;;;;;19.19;32.48;94751.47;10463288;28;2786;-74
2024/03/24 15:22:26;;;;;;;;;;;;;;;19.60;34.78;94769.19;10464067;28;2847;-74
2024/03/24 15:27:26;;;;;;;;;;;;;;;19.86;35.53;94759.75;10459494;28;2799;-74
2024/03/24 15:32:26;;;;;;;;;;;;;;;20.06;36.50;94754.88;10460026;28;2798;-74
2024/03/24 15:37:27;;;;;;;;;;;;;;;20.23;36.02;94765.63;10461695;28;2879;-72
2024/03/24 15:42:30;;;;;;;;;;;;;;;20.35;35.01;94773.00;10441736;28;2718;-75
2024/03/24 15:47:30;;;;;;;;;;;;;;;20.43;35.32;94761.78;10462186;28;2880;-75
2024/03/24 15:52:31;;;;;;;;;;;;;;;20.49;35.25;94752.69;10459236;28;2788;-74
2024/03/24 15:57:49;;;;;;;;;;;;;;;20.51;34.97;94737.38;10463256;28;2784;-75
2024/03/24 16:02:53;;;;;;;;;;;;;;;20.52;35.24;94733.69;10464487;28;2852;-74
2024/03/24 16:07:53;;;;;;;;;;;;;;;20.55;35.47;94735.72;10469784;28;2703;-76
2024/03/24 16:12:59;;;;;;;;;;;;;;;20.56;35.35;94732.03;10470874;28;2558;-76
2024/03/24 16:17:59;;;;;;;;;;;;;;;20.58;35.82;94739.63;10468464;28;2746;-75
2024/03/24 16:23:00;;;;;;;;;;;;;;;20.59;36.06;94749.06;10473347;28;2782;-74
2024/03/24 16:28:00;;;;;;;;;;;;;;;20.58;36.07;94764.09;10473060;28;2981;-77
2024/03/24 16:33:00;;;;;;;;;;;;;;;20.59;36.58;94806.97;10475828;28;2382;-77
2024/03/24 16:38:01;;;;;;;;;;;;;;;20.59;36.23;94799.09;10471262;28;2834;-77
2024/03/24 16:43:02;;;;;;;;;;;;;;;20.57;35.68;94775.69;10473008;28;2755;-75
2024/03/24 16:48:02;;;;;;;;;;;;;;;20.58;36.13;94772.00;10500056;28;2706;-77
2024/03/24 16:53:03;;;;;;;;;;;;;;;20.58;35.79;94769.38;10470605;28;2637;-78
2024/03/24 16:58:03;;;;;;;;;;;;;;;20.59;36.14;94770.91;10471899;28;2787;-77
2024/03/24 17:03:04;;;;;;;;;;;;;;;20.59;36.30;94767.50;10468753;28;2833;-78
2024/03/24 17:08:04;;;;;;;;;;;;;;;20.59;36.00;94772.75;10501045;28;2740;-77
2024/03/24 17:13:04;;;;;;;;;;;;;;;20.58;36.55;94747.50;10465697;28;2661;-79
2024/03/24 17:18:07;;;;;;;;;;;;;;;20.57;35.83;94746.72;10468298;28;2775;-76
2024/03/24 17:23:08;;;;;;;;;;;;;;;20.56;36.29;94736.50;10470145;28;2726;-78
2024/03/24 17:28:09;;;;;;;;;;;;;;;20.56;36.59;94734.66;10465366;28;2575;-77
2024/03/24 17:33:09;;;;;;;;;;;;;;;20.54;36.36;94747.34;10472293;28;2541;-77
2024/03/24 17:38:11;;;;;;;;;;;;;;;20.53;36.16;94751.03;10466818;28;2891;-78
2024/03/24 17:43:11;;;;;;;;;;;;;;;20.55;36.18;94762.03;10466796;28;2831;-76
2024/03/24 17:48:12;;;;;;;;;;;;;;;20.56;35.62;94789.94;10453291;28;2797;-81
2024/03/24 17:53:12;;;;;;;;;;;;;;;20.60;35.84;94806.72;10467171;28;2853;-77
2024/03/24 17:58:12;;;;;;;;;;;;;;;20.64;35.79;94831.38;10476363;28;2603;-76
2024/03/24 18:03:13;;;;;;;;;;;;;;;20.68;35.37;94826.28;10512435;28;1913;-74
2024/03/24 18:13:33;;;;;;;;;;;;;;;20.83;35.30;94816.22;10480745;28;2430;-77
2024/03/24 18:18:34;;;;;;;;;;;;;;;20.94;35.10;94814.91;10511208;28;1887;-75
2024/03/24 18:23:34;;;;;;;;;;;;;;;21.00;34.60;94816.34;10487698;28;1491;-78
2024/03/24 18:28:34;;;;;;;;;;;;;;;21.03;35.16;94823.69;10480831;28;1857;-78
2024/03/24 18:33:36;;;;;;;;;;;;;;;21.05;34.72;94826.81;10483914;28;1914;-76
2024/03/24 18:38:36;;;;;;;;;;;;;;;21.11;34.88;94824.03;10476185;28;1858;-78
2024/03/24 18:43:36;;;;;;;;;;;;;;;21.15;34.98;94827.63;10482647;28;2250;-78
2024/03/24 18:48:37;;;;;;;;;;;;;;;21.19;34.86;94820.69;10477999;28;1910;-77
2024/03/24 18:53:37;;;;;;;;;;;;;;;21.26;34.74;94821.06;10476053;28;2806;-76
2024/03/24 18:58:37;;;;;;;;;;;;;;;21.29;34.75;94823.88;10463373;28;2816;-68
2024/03/24 19:03:38;;;;;;;;;;;;;;;21.34;34.81;94830.88;10444226;28;2835;-67
2024/03/24 19:08:38;;;;;;;;;;;;;;;21.34;35.27;94830.88;10458841;28;2803;-73
2024/03/24 19:13:38;;;;;;;;;;;;;;;21.42;35.30;94827.53;10442632;28;3096;-72
2024/03/24 19:18:39;;;;;;;;;;;;;;;21.46;35.53;94833.75;10461656;28;2739;-73
2024/03/24 19:23:39;;;;;;;;;;;;;;;21.52;35.98;94837.81;10428381;28;2883;-73
2024/03/24 19:28:40;;;;;;;;;;;;;;;21.57;36.01;94829.78;10463831;28;2765;-74
2024/03/24 19:33:40;;;;;;;;;;;;;;;21.59;35.93;94819.72;10457917;28;2732;-74
2024/03/24 19:38:40;;;;;;;;;;;;;;;21.62;35.91;94827.81;10489411;28;2745;-74
2024/03/24 19:43:44;;;;;;;;;;;;;;;21.66;36.21;94827.97;10474946;28;2795;-75
2024/03/24 19:48:44;;;;;;;;;;;;;;;21.69;36.09;94836.06;10470798;28;2930;-73
2024/03/24 19:53:44;;;;;;;;;;;;;;;21.71;36.30;94819.94;10444313;28;2803;-73
2024/03/24 19:58:45;;;;;;;;;;;;;;;21.77;35.63;94821.38;10461921;28;2576;-71
2024/03/24 20:03:45;;;;;;;;;;;;;;;21.74;36.29;94822.00;10462329;28;2733;-70
2024/03/24 20:08:45;;;;;;;;;;;;;;;21.84;35.33;94835.69;10458276;28;2817;-63
2024/03/24 20:13:46;;;;;;;;;;;;;;;21.85;36.04;94837.28;10459571;28;2821;-67
2024/03/24 20:18:46;;;;;;;;;;;;;;;21.82;35.49;94831.84;10446466;28;2767;-67
2024/03/24 20:23:47;;;;;;;;;;;;;;;21.78;37.53;94833.50;10441232;28;2875;-67
2024/03/24 20:28:47;;;;;;;;;;;;;;;21.64;35.70;94814.31;10458300;28;2845;-65
2024/03/24 20:33:47;;;;;;;;;;;;;;;21.61;34.72;94817.56;10455220;28;2788;-68
2024/03/24 20:38:47;;;;;;;;;;;;;;;21.52;35.08;94822.78;10458424;28;2835;-67
2024/03/24 20:43:48;;;;;;;;;;;;;;;21.48;35.56;94824.47;10460324;28;2811;-65
2024/03/24 20:48:48;;;;;;;;;;;;;;;21.45;34.92;94816.38;10460084;28;2753;-65
2024/03/24 20:53:49;;;;;;;;;;;;;;;21.36;34.83;94823.44;10464418;28;2688;-68
2024/03/24 20:58:51;;;;;;;;;;;;;;;21.31;35.18;94813.81;10466746;28;2854;-66
2024/03/24 21:03:52;;;;;;;;;;;;;;;21.22;35.13;94817.47;10465737;28;2586;-67
2024/03/24 21:08:52;;;;;;;;;;;;;;;21.22;34.45;94822.75;10468093;28;2943;-65
2024/03/24 21:13:52;;;;;;;;;;;;;;;21.11;35.12;94814.28;10463623;28;2834;-65
2024/03/24 21:18:53;;;;;;;;;;;;;;;21.06;35.62;94814.41;10449764;28;2799;-65
2024/03/24 21:23:53;;;;;;;;;;;;;;;21.04;35.09;94817.31;10449010;28;2550;-72
2024/03/24 21:28:53;;;;;;;;;;;;;;;20.99;35.10;94814.78;10462098;28;2905;-70
2024/03/24 21:33:59;;;;;;;;;;;;;;;20.97;35.03;94826.69;10495103;27;2874;-70
2024/03/24 21:44:20;;;;;;;;;;;;;;;20.91;34.26;94828.69;10462459;28;2728;-70
2024/03/24 21:49:23;;;;;;;;;;;;;;;20.90;34.06;94832.38;10495153;28;2823;-70
2024/03/24 21:54:24;;;;;;;;;;;;;;;20.86;33.75;94836.69;10482325;28;2909;-71
2024/03/24 21:59:25;;;;;;;;;;;;;;;20.85;33.98;94829.09;10462515;28;2858;-70
2024/03/24 22:04:29;;;;;;;;;;;;;;;20.82;34.07;94824.41;10462677;28;2749;-69
2024/03/24 22:09:31;;;;;;;;;;;;;;;20.80;33.72;94821.28;10475408;28;2943;-70
2024/03/24 22:14:32;;;;;;;;;;;;;;;20.76;34.34;94813.19;10460755;28;2799;-70
2024/03/24 22:19:33;;;;;;;;;;;;;;;20.77;35.82;94814.75;10446741;28;2756;-71
2024/03/24 22:24:33;;;;;;;;;;;;;;;20.76;36.66;94815.84;10458565;28;2857;-70
2024/03/24 22:29:33;;;;;;;;;;;;;;;20.72;36.87;94820.13;10467590;28;2881;-70
2024/03/24 22:34:34;;;;;;;;;;;;;;;20.71;37.12;94825.72;10477677;28;2869;-69
2024/03/24 22:39:34;;;;;;;;;;;;;;;20.66;37.40;94829.22;10480108;28;2879;-69
2024/03/24 22:44:34;;;;;;;;;;;;;;;20.63;38.12;94832.44;10464472;28;2695;-69
2024/03/24 22:49:34;;;;;;;;;;;;;;;20.60;37.73;94825.13;10464873;28;2912;-69
2024/03/24 22:54:35;;;;;;;;;;;;;;;20.56;37.51;94821.53;10426876;28;2792;-70
2024/03/24 22:59:35;;;;;;;;;;;;;;;20.52;37.67;94827.69;10461731;28;2717;-69
2024/03/24 23:04:35;;;;;;;;;;;;;;;20.48;37.84;94826.72;10465135;28;2706;-69
2024/03/24 23:09:36;;;;;;;;;;;;;;;20.45;35.63;94825.44;10463773;28;2854;-70
2024/03/24 23:14:36;;;;;;;;;;;;;;;20.40;35.19;94816.88;10460849;28;2807;-69
2024/03/24 23:19:37;;;;;;;;;;;;;;;20.36;34.90;94808.78;10456295;28;2827;-69
2024/03/24 23:24:38;;;;;;;;;;;;;;;20.35;34.71;94819.59;10465408;28;2914;-68
2024/03/24 23:29:38;;;;;;;;;;;;;;;20.33;34.73;94821.75;10459668;28;2932;-69
2024/03/24 23:34:39;;;;;;;;;;;;;;;20.29;34.72;94818.94;10460874;28;2899;-69
2024/03/24 23:39:39;;;;;;;;;;;;;;;20.30;34.20;94828.38;10459716;28;2792;-68
2024/03/24 23:44:39;;;;;;;;;;;;;;;20.26;34.48;94822.13;10459362;28;2557;-68
2024/03/24 23:49:40;;;;;;;;;;;;;;;20.25;34.55;94824.00;10460065;28;2736;-68
2024/03/24 23:54:42;;;;;;;;;;;;;;;20.24;34.05;94824.28;10460822;28;2806;-69
2024/03/24 23:59:43;;;;;;;;;;;;;;;20.22;34.66;94818.53;10490345;28;2766;-69
